Time;durP1;ratioP1;P1;durP2;ratioP2;P2;SDS_P1;SDS_P2;PMS_P1;PMS_P2;Temp;Humidity;BMP_temperature;BMP_pressure;BME280_temperature;BME280_humidity;BME280_pressure;Samples;Min_cycle;Max_cycle;Signal;HPM_P1;HPM_P2
2022/04/14 00:00:41;0.00;0.00;0.62;0.00;0.00;0.62;2.60;1.93;;;28.70;23.90;;;;;;2256950;61;20389;-65
2022/04/14 00:03:26;0.00;0.00;0.62;0.00;0.00;0.62;1.70;1.40;;;28.70;23.90;;;;;;2256154;61;20442;-65
2022/04/14 00:06:12;0.00;0.00;0.62;0.00;0.00;0.62;2.47;1.63;;;28.70;23.90;;;;;;2255917;61;20381;-63
2022/04/14 00:08:56;0.00;0.00;0.62;0.00;0.00;0.62;1.97;1.50;;;28.70;23.90;;;;;;2256026;61;20374;-65
2022/04/14 00:11:41;0.00;0.00;0.62;0.00;0.00;0.62;1.80;1.33;;;28.60;24.00;;;;;;2256362;61;20393;-66
2022/04/14 00:14:25;0.00;0.00;0.62;0.00;0.00;0.62;1.87;1.10;;;28.60;24.10;;;;;;2256267;61;20370;-64
2022/04/14 00:17:12;0.00;0.00;0.62;0.00;0.00;0.62;1.50;1.20;;;28.60;24.20;;;;;;2255977;61;20420;-65
2022/04/14 00:19:57;0.00;0.00;0.62;0.00;0.00;0.62;1.70;1.10;;;28.50;24.10;;;;;;2255697;61;20374;-65
2022/04/14 00:22:42;0.00;0.00;0.62;0.00;0.00;0.62;1.43;0.90;;;28.50;24.60;;;;;;2256658;61;20768;-65
2022/04/14 00:25:27;0.00;0.00;0.62;0.00;0.00;0.62;1.40;1.10;;;28.60;24.20;;;;;;2256092;61;20406;-65
2022/04/14 00:28:11;0.00;0.00;0.62;0.00;0.00;0.62;1.80;1.23;;;28.50;24.10;;;;;;2255700;61;20365;-65
2022/04/14 00:30:58;0.00;0.00;0.62;0.00;0.00;0.62;2.10;1.20;;;28.50;24.10;;;;;;2256250;61;20377;-65
2022/04/14 00:33:43;0.00;0.00;0.62;0.00;0.00;0.62;1.67;0.90;;;28.50;24.10;;;;;;2256596;61;20914;-64
2022/04/14 00:36:28;0.00;0.00;0.62;0.00;0.00;0.62;2.13;1.30;;;28.50;24.10;;;;;;2256134;61;20365;-65
2022/04/14 00:39:14;0.00;0.00;0.62;0.00;0.00;0.62;2.03;1.23;;;28.50;24.10;;;;;;2255962;61;20361;-65
2022/04/14 00:41:59;0.00;0.00;0.62;0.00;0.00;0.62;2.20;1.27;;;28.50;24.10;;;;;;2256151;61;20401;-64
2022/04/14 00:44:44;0.00;0.00;0.62;0.00;0.00;0.62;2.17;1.00;;;28.50;24.20;;;;;;2256628;61;20767;-65
2022/04/14 00:47:29;0.00;0.00;0.62;0.00;0.00;0.62;2.53;1.10;;;28.50;24.10;;;;;;2256073;61;20394;-65
2022/04/14 00:50:13;0.00;0.00;0.62;0.00;0.00;0.62;1.60;1.00;;;28.50;24.10;;;;;;2255997;61;20389;-65
2022/04/14 00:52:58;0.00;0.00;0.62;0.00;0.00;0.62;1.53;0.90;;;28.50;24.10;;;;;;2256390;61;20401;-65
2022/04/14 00:55:44;0.00;0.00;0.62;0.00;0.00;0.62;1.30;0.87;;;28.50;24.10;;;;;;2256487;61;20366;-66
2022/04/14 00:58:29;0.00;0.00;0.62;0.00;0.00;0.62;1.40;1.00;;;28.50;24.10;;;;;;2255665;61;20358;-65
2022/04/14 01:01:14;0.00;0.00;0.62;0.00;0.00;0.62;1.53;0.90;;;28.50;24.10;;;;;;2256149;61;20397;-73
2022/04/14 01:03:59;0.00;0.00;0.62;0.00;0.00;0.62;1.50;1.00;;;28.50;24.10;;;;;;2256000;61;20408;-65
2022/04/14 01:06:45;0.00;0.00;0.62;0.00;0.00;0.62;1.60;0.93;;;28.50;24.10;;;;;;2256482;61;20430;-64
2022/04/14 01:09:30;0.00;0.00;0.62;0.00;0.00;0.62;1.40;0.80;;;28.50;24.10;;;;;;2255743;61;20823;-65
2022/04/14 01:12:16;0.00;0.00;0.62;0.00;0.00;0.62;1.50;1.00;;;28.50;24.10;;;;;;2255815;61;20501;-65
2022/04/14 01:15:01;0.00;0.00;0.62;0.00;0.00;0.62;1.30;0.87;;;28.50;24.10;;;;;;2256231;61;20767;-65
2022/04/14 01:17:45;0.00;0.00;0.62;0.00;0.00;0.62;1.60;0.80;;;28.50;24.10;;;;;;2255842;61;20366;-66
2022/04/14 01:20:30;0.00;0.00;0.62;0.00;0.00;0.62;1.20;0.70;;;28.50;24.10;;;;;;2255662;61;20834;-65
2022/04/14 01:23:19;0.00;0.00;0.62;0.00;0.00;0.62;1.37;0.90;;;28.50;24.10;;;;;;2255724;61;20441;-65
2022/04/14 01:26:06;0.00;0.00;0.62;0.00;0.00;0.62;1.93;1.07;;;28.50;24.10;;;;;;2255729;61;20469;-65
2022/04/14 01:28:50;0.00;0.00;0.62;0.00;0.00;0.62;1.30;0.90;;;28.50;24.10;;;;;;2256149;61;20388;-66
2022/04/14 01:31:35;0.00;0.00;0.62;0.00;0.00;0.62;1.20;0.70;;;28.50;24.10;;;;;;2255826;61;20429;-67
2022/04/14 01:34:19;0.00;0.00;0.62;0.00;0.00;0.62;1.60;0.90;;;28.50;24.10;;;;;;2255592;61;20362;-64
2022/04/14 01:37:04;0.00;0.00;0.62;0.00;0.00;0.62;1.40;0.87;;;28.50;24.10;;;;;;2256397;61;20366;-65
2022/04/14 01:39:50;0.00;0.00;0.62;0.00;0.00;0.62;1.40;0.87;;;28.50;24.10;;;;;;2255778;61;20882;-65
2022/04/14 01:42:36;0.00;0.00;0.62;0.00;0.00;0.62;1.50;0.80;;;28.50;24.10;;;;;;2255580;61;20771;-64
2022/04/14 01:45:21;0.00;0.00;0.62;0.00;0.00;0.62;1.60;0.90;;;28.50;24.10;;;;;;2255923;61;20370;-65
2022/04/14 01:48:05;0.00;0.00;0.62;0.00;0.00;0.62;1.60;0.80;;;28.50;24.10;;;;;;2255629;61;20415;-64
2022/04/14 01:50:50;0.00;0.00;0.62;0.00;0.00;0.62;2.00;0.87;;;28.60;24.20;;;;;;2256058;61;20382;-65
2022/04/14 01:53:34;0.00;0.00;0.62;0.00;0.00;0.62;1.60;0.80;;;28.50;24.10;;;;;;2255643;61;20413;-69
2022/04/14 01:56:21;0.00;0.00;0.62;0.00;0.00;0.62;1.90;0.80;;;28.60;24.20;;;;;;2255694;61;20590;-65
2022/04/14 01:59:07;0.00;0.00;0.62;0.00;0.00;0.62;1.30;0.80;;;28.60;24.20;;;;;;2255893;61;20357;-65
2022/04/14 02:01:52;0.00;0.00;0.62;0.00;0.00;0.62;1.77;0.80;;;28.50;24.10;;;;;;2255713;61;20425;-67
2022/04/14 02:04:36;0.00;0.00;0.62;0.00;0.00;0.62;1.23;0.80;;;28.60;24.20;;;;;;2255565;61;20426;-64
2022/04/14 02:07:21;0.00;0.00;0.62;0.00;0.00;0.62;1.40;0.80;;;28.50;24.10;;;;;;2255583;61;20385;-65
2022/04/14 02:10:06;0.00;0.00;0.62;0.00;0.00;0.62;1.20;0.70;;;28.60;24.20;;;;;;2255680;61;20764;-65
2022/04/14 02:12:51;0.00;0.00;0.62;0.00;0.00;0.62;2.90;1.10;;;28.60;24.20;;;;;;2255969;61;20366;-64
2022/04/14 02:15:37;0.00;0.00;0.62;0.00;0.00;0.62;1.50;1.10;;;28.60;24.70;;;;;;2255917;61;20362;-64
2022/04/14 02:18:22;0.00;0.00;0.62;0.00;0.00;0.62;1.93;1.23;;;28.60;24.20;;;;;;2255774;61;20366;-65
2022/04/14 02:21:07;0.00;0.00;0.62;0.00;0.00;0.62;1.73;1.27;;;28.50;24.10;;;;;;2256928;61;20398;-65
2022/04/14 02:23:51;0.00;0.00;0.62;0.00;0.00;0.62;1.60;1.30;;;28.60;24.20;;;;;;2256604;61;20384;-65
2022/04/14 02:26:36;0.00;0.00;0.62;0.00;0.00;0.62;1.97;1.20;;;28.50;24.10;;;;;;2256271;61;20377;-65
2022/04/14 02:29:20;0.00;0.00;0.62;0.00;0.00;0.62;1.60;1.17;;;28.50;24.10;;;;;;2256495;61;20369;-66
2022/04/14 02:32:07;0.00;0.00;0.62;0.00;0.00;0.62;1.70;1.40;;;28.50;24.20;;;;;;2256846;61;20960;-65
2022/04/14 02:34:52;0.00;0.00;0.62;0.00;0.00;0.62;1.60;1.00;;;28.50;24.20;;;;;;2256695;61;20490;-65
2022/04/14 02:37:40;0.00;0.00;0.62;0.00;0.00;0.62;1.73;1.10;;;28.50;24.30;;;;;;2256450;61;20366;-66
2022/04/14 02:40:25;0.00;0.00;0.62;0.00;0.00;0.62;1.50;1.00;;;28.50;24.30;;;;;;2256831;61;20385;-66
2022/04/14 02:43:09;0.00;0.00;0.62;0.00;0.00;0.62;1.47;0.90;;;28.50;24.30;;;;;;2256715;61;20393;-65
2022/04/14 02:45:54;0.00;0.00;0.62;0.00;0.00;0.62;2.53;1.40;;;28.50;24.30;;;;;;2256585;61;20850;-69
2022/04/14 02:48:40;0.00;0.00;0.62;0.00;0.00;0.62;1.70;1.27;;;28.50;24.40;;;;;;2255900;61;20486;-66
2022/04/14 02:51:25;0.00;0.00;0.62;0.00;0.00;0.62;2.50;1.23;;;28.50;24.40;;;;;;2256756;61;20428;-65
2022/04/14 02:54:09;0.00;0.00;0.62;0.00;0.00;0.62;1.30;0.80;;;28.50;24.40;;;;;;2256942;61;20777;-65
2022/04/14 02:56:54;0.00;0.00;0.62;0.00;0.00;0.62;1.63;1.13;;;28.50;24.40;;;;;;2256524;61;20358;-66
2022/04/14 02:59:38;0.00;0.00;0.62;0.00;0.00;0.62;1.60;1.00;;;28.50;24.50;;;;;;2256061;61;20433;-65
2022/04/14 03:02:23;0.00;0.00;0.62;0.00;0.00;0.62;2.70;1.33;;;28.40;24.40;;;;;;2256860;61;20432;-65
2022/04/14 03:05:10;0.00;0.00;0.62;0.00;0.00;0.62;2.30;1.67;;;28.40;24.40;;;;;;2256667;61;20358;-65
2022/04/14 03:07:55;0.00;0.00;0.62;0.00;0.00;0.62;1.70;1.03;;;28.40;24.50;;;;;;2256222;61;20882;-66
2022/04/14 03:10:39;0.00;0.00;0.62;0.00;0.00;0.62;1.90;1.00;;;28.40;24.50;;;;;;2256053;61;20968;-66
2022/04/14 03:13:24;0.00;0.00;0.62;0.00;0.00;0.62;1.47;1.17;;;28.40;25.10;;;;;;2256814;61;20366;-66
2022/04/14 03:16:09;0.00;0.00;0.62;0.00;0.00;0.62;1.43;0.97;;;28.40;24.50;;;;;;2256824;61;20354;-66
2022/04/14 03:18:53;0.00;0.00;0.62;0.00;0.00;0.62;1.70;1.10;;;28.40;24.60;;;;;;2255895;61;20819;-66
2022/04/14 03:21:39;0.00;0.00;0.62;0.00;0.00;0.62;3.10;0.90;;;28.40;24.60;;;;;;2256582;61;20424;-65
2022/04/14 03:24:24;0.00;0.00;0.62;0.00;0.00;0.62;1.73;1.20;;;28.40;24.60;;;;;;2256702;61;20382;-65
2022/04/14 03:27:08;0.00;0.00;0.62;0.00;0.00;0.62;1.97;1.10;;;28.40;24.70;;;;;;2256422;61;20405;-65
2022/04/14 03:29:53;0.00;0.00;0.62;0.00;0.00;0.62;1.50;1.07;;;28.30;24.60;;;;;;2255808;61;20413;-66
2022/04/14 03:32:43;0.00;0.00;0.62;0.00;0.00;0.62;1.87;1.13;;;28.30;24.60;;;;;;2256037;61;20444;-65
2022/04/14 03:35:27;0.00;0.00;0.62;0.00;0.00;0.62;1.50;1.10;;;28.30;24.60;;;;;;2257194;61;20369;-65
2022/04/14 03:38:14;0.00;0.00;0.62;0.00;0.00;0.62;2.57;1.10;;;28.30;24.70;;;;;;2256043;61;20492;-65
2022/04/14 03:41:06;0.00;0.00;0.62;0.00;0.00;0.62;1.70;1.00;;;28.30;24.70;;;;;;2256170;61;20386;-65
2022/04/14 03:43:50;0.00;0.00;0.62;0.00;0.00;0.62;1.50;1.10;;;28.20;24.70;;;;;;2256296;61;20361;-66
2022/04/14 03:46:35;0.00;0.00;0.62;0.00;0.00;0.62;2.10;0.97;;;28.30;24.80;;;;;;2256452;61;20980;-70
2022/04/14 03:49:19;0.00;0.00;0.62;0.00;0.00;0.62;1.83;1.17;;;28.20;24.80;;;;;;2256080;61;20408;-65
2022/04/14 03:52:05;0.00;0.00;0.62;0.00;0.00;0.62;1.63;0.93;;;28.20;24.80;;;;;;2256213;61;20421;-66
2022/04/14 03:54:51;0.00;0.00;0.62;0.00;0.00;0.62;1.50;0.90;;;28.20;24.80;;;;;;2255967;61;20452;-65
2022/04/14 03:57:36;0.00;0.00;0.62;0.00;0.00;0.62;1.80;1.10;;;28.20;24.80;;;;;;2256625;61;20779;-65
2022/04/14 04:00:21;0.00;0.00;0.62;0.00;0.00;0.62;2.33;1.20;;;28.20;24.80;;;;;;2256092;61;20865;-69
2022/04/14 04:03:08;0.00;0.00;0.62;0.00;0.00;0.62;1.50;0.90;;;28.20;24.80;;;;;;2256559;61;20776;-65
2022/04/14 04:05:53;0.00;0.00;0.62;0.00;0.00;0.62;1.50;1.00;;;28.20;24.80;;;;;;2255989;61;20381;-65
2022/04/14 04:08:37;0.00;0.00;0.62;0.00;0.00;0.62;10.07;1.50;;;28.10;24.80;;;;;;2256032;61;20871;-65
2022/04/14 04:11:23;0.00;0.00;0.62;0.00;0.00;0.62;2.90;1.37;;;28.10;24.80;;;;;;2256455;61;20382;-70
2022/04/14 04:14:07;0.00;0.00;0.62;0.00;0.00;0.62;2.50;1.27;;;28.10;24.80;;;;;;2256001;61;20370;-66
2022/04/14 04:16:52;0.00;0.00;0.62;0.00;0.00;0.62;1.70;0.97;;;28.10;24.90;;;;;;2255531;61;20366;-66
2022/04/14 04:19:38;0.00;0.00;0.62;0.00;0.00;0.62;2.80;1.13;;;28.10;24.90;;;;;;2256294;61;20374;-66
2022/04/14 04:22:22;0.00;0.00;0.62;0.00;0.00;0.62;1.30;0.93;;;28.10;24.90;;;;;;2256138;61;20401;-65
2022/04/14 04:25:08;0.00;0.00;0.62;0.00;0.00;0.62;1.57;1.00;;;28.10;24.90;;;;;;2255925;61;21051;-66
2022/04/14 04:27:54;0.00;0.00;0.62;0.00;0.00;0.62;1.77;0.97;;;28.00;24.90;;;;;;2255942;61;20390;-65
2022/04/14 04:30:40;0.00;0.00;0.62;0.00;0.00;0.62;1.60;1.03;;;28.00;24.90;;;;;;2256331;61;20427;-66
2022/04/14 04:33:24;0.00;0.00;0.62;0.00;0.00;0.62;1.50;1.10;;;28.00;24.90;;;;;;2255689;61;20425;-66
2022/04/14 04:36:10;0.00;0.00;0.62;0.00;0.00;0.62;1.80;1.00;;;28.00;25.00;;;;;;2256325;61;20357;-64
2022/04/14 04:38:58;0.00;0.00;0.62;0.00;0.00;0.62;2.97;1.30;;;28.00;25.00;;;;;;2255476;61;20362;-66
2022/04/14 04:41:42;0.00;0.00;0.62;0.00;0.00;0.62;1.97;1.17;;;28.00;25.00;;;;;;2256395;61;20448;-66
2022/04/14 04:44:28;0.00;0.00;0.62;0.00;0.00;0.62;1.53;1.10;;;28.00;25.00;;;;;;2255496;61;20370;-66
2022/04/14 04:47:13;0.00;0.00;0.62;0.00;0.00;0.62;1.60;1.00;;;27.90;25.00;;;;;;2255752;61;20536;-66
2022/04/14 04:50:00;0.00;0.00;0.62;0.00;0.00;0.62;1.70;1.10;;;28.00;25.10;;;;;;2255659;61;20405;-66
2022/04/14 04:52:45;0.00;0.00;0.62;0.00;0.00;0.62;1.80;1.30;;;27.90;25.10;;;;;;2256341;61;20365;-66
2022/04/14 04:55:29;0.00;0.00;0.62;0.00;0.00;0.62;2.40;1.20;;;27.90;25.10;;;;;;2256030;61;20386;-64
2022/04/14 04:58:14;0.00;0.00;0.62;0.00;0.00;0.62;1.83;1.00;;;27.90;25.10;;;;;;2255553;61;20357;-65
2022/04/14 05:01:00;0.00;0.00;0.62;0.00;0.00;0.62;1.57;1.10;;;27.90;25.20;;;;;;2256007;61;20389;-63
2022/04/14 05:03:44;0.00;0.00;0.62;0.00;0.00;0.62;2.10;1.13;;;27.90;25.20;;;;;;2256587;61;20405;-64
2022/04/14 05:06:29;0.00;0.00;0.62;0.00;0.00;0.62;1.93;0.90;;;27.90;25.20;;;;;;2256153;61;20985;-64
2022/04/14 05:09:13;0.00;0.00;0.62;0.00;0.00;0.62;2.10;1.20;;;27.80;25.20;;;;;;2255713;61;20873;-64
2022/04/14 05:11:58;0.00;0.00;0.62;0.00;0.00;0.62;1.67;1.30;;;27.80;25.20;;;;;;2256329;61;20457;-64
2022/04/14 05:14:42;0.00;0.00;0.62;0.00;0.00;0.62;2.10;1.13;;;27.80;25.20;;;;;;2256584;61;20923;-65
2022/04/14 05:17:28;0.00;0.00;0.62;0.00;0.00;0.62;1.63;1.30;;;27.80;25.20;;;;;;2255976;61;20358;-65
2022/04/14 05:20:13;0.00;0.00;0.62;0.00;0.00;0.62;2.20;1.30;;;27.80;25.20;;;;;;2256443;61;20393;-64
2022/04/14 05:22:57;0.00;0.00;0.62;0.00;0.00;0.62;1.40;1.00;;;27.80;25.20;;;;;;2256123;61;20362;-70
2022/04/14 05:25:42;0.00;0.00;0.62;0.00;0.00;0.62;1.70;1.10;;;27.80;25.20;;;;;;2256377;61;20386;-66
2022/04/14 05:28:26;0.00;0.00;0.62;0.00;0.00;0.62;2.60;1.33;;;27.80;25.20;;;;;;2255606;61;20366;-65
2022/04/14 05:31:11;0.00;0.00;0.62;0.00;0.00;0.62;1.90;1.20;;;27.80;25.20;;;;;;2255510;61;20421;-64
2022/04/14 05:33:57;0.00;0.00;0.62;0.00;0.00;0.62;1.50;1.00;;;27.80;25.30;;;;;;2256364;61;20405;-65
2022/04/14 05:36:41;0.00;0.00;0.62;0.00;0.00;0.62;1.60;1.13;;;27.80;25.30;;;;;;2256454;61;20362;-67
2022/04/14 05:39:26;0.00;0.00;0.62;0.00;0.00;0.62;1.90;1.20;;;27.80;25.30;;;;;;2255361;61;20802;-66
2022/04/14 05:42:10;0.00;0.00;0.62;0.00;0.00;0.62;2.67;1.87;;;27.70;25.20;;;;;;2255908;61;20652;-66
2022/04/14 05:44:55;0.00;0.00;0.62;0.00;0.00;0.62;2.00;1.77;;;27.70;25.30;;;;;;2256138;61;20357;-66
2022/04/14 05:47:39;0.00;0.00;0.62;0.00;0.00;0.62;3.00;1.50;;;27.70;25.20;;;;;;2255663;61;20470;-63
2022/04/14 05:50:27;0.00;0.00;0.62;0.00;0.00;0.62;3.47;1.50;;;27.70;25.20;;;;;;2255518;61;20358;-67
2022/04/14 05:53:12;0.00;0.00;0.62;0.00;0.00;0.62;2.00;1.60;;;27.70;25.20;;;;;;2255960;61;20366;-60
2022/04/14 05:55:56;0.00;0.00;0.62;0.00;0.00;0.62;2.63;1.73;;;27.60;25.20;;;;;;2256794;61;20369;-65
2022/04/14 05:58:41;0.00;0.00;0.62;0.00;0.00;0.62;2.80;1.57;;;27.60;25.30;;;;;;2255070;61;20370;-65
2022/04/14 06:01:25;0.00;0.00;0.62;0.00;0.00;0.62;2.50;1.70;;;27.60;25.30;;;;;;2256135;61;20382;-68
2022/04/14 06:04:10;0.00;0.00;0.62;0.00;0.00;0.62;2.10;1.63;;;27.60;25.30;;;;;;2256522;61;20369;-66
2022/04/14 06:06:56;0.00;0.00;0.62;0.00;0.00;0.62;2.27;1.53;;;27.60;25.30;;;;;;2256717;61;20381;-66
2022/04/14 06:09:41;0.00;0.00;0.62;0.00;0.00;0.62;2.03;1.40;;;27.50;25.30;;;;;;2256076;61;20370;-65
2022/04/14 06:12:26;0.00;0.00;0.62;0.00;0.00;0.62;2.47;1.30;;;27.50;25.30;;;;;;2255148;61;20448;-67
2022/04/14 06:15:11;0.00;0.00;0.62;0.00;0.00;0.62;1.80;1.30;;;27.50;25.30;;;;;;2256026;61;20496;-65
2022/04/14 06:17:55;0.00;0.00;0.62;0.00;0.00;0.62;1.70;1.13;;;27.50;25.90;;;;;;2255838;61;20405;-63
2022/04/14 06:20:40;0.00;0.00;0.62;0.00;0.00;0.62;2.13;1.50;;;27.50;25.40;;;;;;2255873;61;20378;-64
2022/04/14 06:23:26;0.00;0.00;0.62;0.00;0.00;0.62;2.27;1.43;;;27.50;25.40;;;;;;2255373;61;20898;-70
2022/04/14 06:26:11;0.00;0.00;0.62;0.00;0.00;0.62;1.77;1.20;;;27.50;25.40;;;;;;2254440;61;20428;-64
2022/04/14 06:28:55;0.00;0.00;0.62;0.00;0.00;0.62;2.80;1.40;;;27.50;25.40;;;;;;2255267;61;20455;-65
2022/04/14 06:31:40;0.00;0.00;0.62;0.00;0.00;0.62;1.60;1.27;;;27.50;25.40;;;;;;2256238;61;20385;-71
2022/04/14 06:34:25;0.00;0.00;0.62;0.00;0.00;0.62;1.60;1.03;;;27.50;25.40;;;;;;2255529;61;20413;-68
2022/04/14 06:37:09;0.00;0.00;0.62;0.00;0.00;0.62;2.37;1.57;;;27.50;25.50;;;;;;2255895;61;20361;-67
2022/04/14 06:39:55;0.00;0.00;0.62;0.00;0.00;0.62;2.97;1.53;;;27.50;25.50;;;;;;2256735;61;20412;-65
2022/04/14 06:42:40;0.00;0.00;0.62;0.00;0.00;0.62;1.50;1.00;;;27.50;25.50;;;;;;2256025;61;20394;-65
2022/04/14 06:45:25;0.00;0.00;0.62;0.00;0.00;0.62;1.50;1.00;;;27.50;25.50;;;;;;2256005;61;20397;-65
2022/04/14 06:48:10;0.00;0.00;0.62;0.00;0.00;0.62;2.90;1.20;;;27.50;25.50;;;;;;2255642;61;20444;-66
2022/04/14 06:50:54;0.00;0.00;0.62;0.00;0.00;0.62;1.83;1.20;;;27.50;25.50;;;;;;2256034;61;20385;-67
2022/04/14 06:53:43;0.00;0.00;0.62;0.00;0.00;0.62;1.60;1.10;;;27.50;25.50;;;;;;2256371;61;20360;-64
2022/04/14 06:56:29;0.00;0.00;0.62;0.00;0.00;0.62;2.87;1.47;;;27.50;25.50;;;;;;2255921;61;20493;-68
2022/04/14 06:59:13;0.00;0.00;0.62;0.00;0.00;0.62;2.20;1.20;;;27.50;25.50;;;;;;2255746;61;20526;-60
2022/04/14 07:01:58;0.00;0.00;0.62;0.00;0.00;0.62;3.83;1.47;;;27.50;25.50;;;;;;2256064;61;20385;-64
2022/04/14 07:04:42;0.00;0.00;0.62;0.00;0.00;0.62;1.47;1.03;;;27.50;25.80;;;;;;2256672;61;20365;-63
2022/04/14 07:07:27;0.00;0.00;0.62;0.00;0.00;0.62;1.60;1.00;;;27.50;25.60;;;;;;2256636;61;20386;-64
2022/04/14 07:10:13;0.00;0.00;0.62;0.00;0.00;0.62;3.37;1.00;;;27.50;25.60;;;;;;2256825;61;20361;-62
2022/04/14 07:12:59;0.00;0.00;0.62;0.00;0.00;0.62;2.63;1.60;;;27.50;25.60;;;;;;2256527;61;20910;-63
2022/04/14 07:15:43;0.00;0.00;0.62;0.00;0.00;0.62;2.20;1.60;;;27.50;25.60;;;;;;2256934;61;20369;-62
2022/04/14 07:18:28;0.00;0.00;0.62;0.00;0.00;0.62;1.70;1.30;;;27.40;25.50;;;;;;2255979;61;20373;-64
2022/04/14 07:21:13;0.00;0.00;0.62;0.00;0.00;0.62;1.50;1.20;;;27.40;25.50;;;;;;2256721;61;20390;-65
2022/04/14 07:23:57;0.00;0.00;0.62;0.00;0.00;0.62;2.33;1.47;;;27.40;25.50;;;;;;2256693;61;20389;-66
2022/04/14 07:26:42;0.00;0.00;0.62;0.00;0.00;0.62;1.83;1.37;;;27.40;25.50;;;;;;2255924;61;20390;-64
2022/04/14 07:29:28;0.00;0.00;0.62;0.00;0.00;0.62;3.03;1.90;;;27.40;25.50;;;;;;2256946;61;20366;-66
2022/04/14 07:32:12;0.00;0.00;0.62;0.00;0.00;0.62;1.93;1.10;;;27.40;25.60;;;;;;2256827;61;20494;-64
2022/04/14 07:34:57;0.00;0.00;0.62;0.00;0.00;0.62;2.57;1.73;;;27.30;25.60;;;;;;2256500;61;20369;-64
2022/04/14 07:37:43;0.00;0.00;0.62;0.00;0.00;0.62;3.53;1.20;;;27.40;25.60;;;;;;2256903;61;20361;-61
2022/04/14 07:40:28;0.00;0.00;0.62;0.00;0.00;0.62;2.07;1.30;;;27.30;25.60;;;;;;2255949;61;20366;-64
2022/04/14 07:43:13;0.00;0.00;0.62;0.00;0.00;0.62;2.13;1.40;;;27.40;25.70;;;;;;2256464;61;20389;-65
2022/04/14 07:45:58;0.00;0.00;0.62;0.00;0.00;0.62;2.10;1.10;;;27.30;25.60;;;;;;2256797;61;20432;-66
2022/04/14 07:48:43;0.00;0.00;0.62;0.00;0.00;0.62;1.67;1.10;;;27.40;25.70;;;;;;2254922;61;20917;-64
2022/04/14 07:51:28;0.00;0.00;0.62;0.00;0.00;0.62;2.37;1.37;;;27.30;25.60;;;;;;2487292;53;20402;-64
2022/04/14 07:54:13;0.00;0.00;0.62;0.00;0.00;0.62;1.87;1.10;;;27.30;25.60;;;;;;2252888;61;20359;-66
2022/04/14 07:56:59;0.00;0.00;0.62;0.00;0.00;0.62;2.00;1.00;;;27.30;25.60;;;;;;2251286;61;20383;-63
2022/04/14 07:59:44;0.00;0.00;0.62;0.00;0.00;0.62;2.97;1.30;;;27.30;25.60;;;;;;2251038;61;20903;-64
2022/04/14 08:02:30;0.00;0.00;0.62;0.00;0.00;0.62;3.40;1.80;;;27.30;25.60;;;;;;2252453;61;20927;-64
2022/04/14 08:05:15;0.00;0.00;0.62;0.00;0.00;0.62;2.67;1.20;;;27.30;25.60;;;;;;2252251;61;20405;-63
2022/04/14 08:08:00;0.00;0.00;0.62;0.00;0.00;0.62;1.60;1.00;;;27.30;25.60;;;;;;2251942;61;20910;-63
2022/04/14 08:10:47;0.00;0.00;0.62;0.00;0.00;0.62;3.43;2.10;;;27.30;25.60;;;;;;2252206;61;20449;-64
2022/04/14 08:13:36;0.00;0.00;0.62;0.00;0.00;0.62;2.80;2.30;;;27.30;25.70;;;;;;2251608;61;20390;-66
2022/04/14 08:16:21;0.00;0.00;0.62;0.00;0.00;0.62;4.63;3.10;;;27.20;25.60;;;;;;2252266;61;20406;-67
2022/04/14 08:19:07;0.00;0.00;0.62;0.00;0.00;0.62;4.00;2.07;;;27.20;25.80;;;;;;2252222;61;20417;-63
2022/04/14 08:21:51;0.00;0.00;0.62;0.00;0.00;0.62;4.20;2.30;;;27.00;25.70;;;;;;2252286;61;20444;-60
2022/04/14 08:24:36;0.00;0.00;0.62;0.00;0.00;0.62;4.83;2.87;;;27.00;25.90;;;;;;2252573;61;20951;-67
2022/04/14 08:27:21;0.00;0.00;0.62;0.00;0.00;0.62;3.60;2.47;;;26.90;26.00;;;;;;2252434;61;20478;-67
2022/04/14 08:30:07;0.00;0.00;0.62;0.00;0.00;0.62;3.93;2.90;;;26.80;26.60;;;;;;2252352;61;20371;-65
2022/04/14 08:32:54;0.00;0.00;0.62;0.00;0.00;0.62;6.00;3.90;;;26.70;26.20;;;;;;2252594;61;20440;-65
2022/04/14 08:35:42;0.00;0.00;0.62;0.00;0.00;0.62;5.17;3.33;;;26.60;26.20;;;;;;2252110;61;20854;-60
2022/04/14 08:38:27;0.00;0.00;0.62;0.00;0.00;0.62;7.70;3.90;;;26.50;26.90;;;;;;2252437;61;20538;-68
2022/04/14 08:41:18;0.00;0.00;0.62;0.00;0.00;0.62;3.33;2.50;;;26.40;26.50;;;;;;2252305;61;20387;-60
2022/04/14 08:44:06;0.00;0.00;0.62;0.00;0.00;0.62;6.60;3.00;;;26.30;26.50;;;;;;2252217;61;20787;-61
2022/04/14 08:46:52;0.00;0.00;0.62;0.00;0.00;0.62;3.40;2.43;;;26.20;26.60;;;;;;2252685;61;20379;-61
2022/04/14 08:49:37;0.00;0.00;0.62;0.00;0.00;0.62;4.97;3.80;;;26.20;26.60;;;;;;2252181;61;20465;-61
2022/04/14 08:52:25;0.00;0.00;0.62;0.00;0.00;0.62;3.70;3.00;;;26.20;27.30;;;;;;2252635;61;20925;-60
2022/04/14 08:55:12;0.00;0.00;0.62;0.00;0.00;0.62;5.80;4.30;;;26.20;26.80;;;;;;2252609;61;20479;-57
2022/04/14 08:57:57;0.00;0.00;0.62;0.00;0.00;0.62;5.20;3.57;;;26.20;26.80;;;;;;2251882;61;20410;-58
2022/04/14 09:00:43;0.00;0.00;0.62;0.00;0.00;0.62;5.27;3.10;;;26.20;26.90;;;;;;2252845;61;20406;-59
2022/04/14 09:03:28;0.00;0.00;0.62;0.00;0.00;0.62;4.13;2.83;;;26.20;27.00;;;;;;2252540;61;20363;-63
2022/04/14 09:06:14;0.00;0.00;0.62;0.00;0.00;0.62;3.40;2.40;;;26.20;26.90;;;;;;2252181;61;20378;-56
2022/04/14 09:09:00;0.00;0.00;0.62;0.00;0.00;0.62;4.33;2.23;;;26.20;26.90;;;;;;2252173;61;20812;-56
2022/04/14 09:11:45;0.00;0.00;0.62;0.00;0.00;0.62;2.87;2.23;;;26.20;26.80;;;;;;2252032;61;20946;-59
2022/04/14 09:14:37;0.00;0.00;0.62;0.00;0.00;0.62;4.20;2.23;;;26.20;26.80;;;;;;2252307;61;20422;-64
2022/04/14 09:17:22;0.00;0.00;0.62;0.00;0.00;0.62;4.00;2.13;;;26.30;26.70;;;;;;2252185;61;20506;-60
2022/04/14 09:20:31;0.00;0.00;0.62;0.00;0.00;0.62;2.80;2.37;;;26.30;26.60;;;;;;2255130;61;20921;-59
2022/04/14 09:23:20;0.00;0.00;0.62;0.00;0.00;0.62;7.47;2.20;;;26.30;26.60;;;;;;2256625;61;20365;-62
2022/04/14 09:26:14;0.00;0.00;0.62;0.00;0.00;0.62;3.77;1.90;;;26.40;26.70;;;;;;2256517;61;20453;-64
2022/04/14 09:29:08;0.00;0.00;0.62;0.00;0.00;0.62;6.10;2.00;;;26.40;26.60;;;;;;2256079;61;20352;-63
2022/04/14 09:31:54;0.00;0.00;0.62;0.00;0.00;0.62;3.40;1.97;;;26.40;27.10;;;;;;2256199;61;20465;-62
2022/04/14 09:34:51;0.00;0.00;0.62;0.00;0.00;0.62;4.63;2.00;;;26.50;26.60;;;;;;2256135;61;20362;-62
2022/04/14 09:37:36;0.00;0.00;0.62;0.00;0.00;0.62;2.93;1.70;;;26.50;26.50;;;;;;2256437;61;20398;-62
2022/04/14 09:40:21;0.00;0.00;0.62;0.00;0.00;0.62;2.30;1.77;;;26.50;26.50;;;;;;2256341;61;20358;-65
2022/04/14 09:43:07;0.00;0.00;0.62;0.00;0.00;0.62;3.33;2.00;;;26.60;26.50;;;;;;2256119;61;20358;-62
2022/04/14 09:45:53;0.00;0.00;0.62;0.00;0.00;0.62;3.20;2.17;;;26.60;26.40;;;;;;2256173;61;20385;-62
2022/04/14 09:49:05;0.00;0.00;0.62;0.00;0.00;0.62;2.50;1.90;;;26.60;26.40;;;;;;2255166;61;20369;-63
2022/04/14 09:51:51;0.00;0.00;0.62;0.00;0.00;0.62;3.20;1.67;;;26.60;26.40;;;;;;2256816;61;20408;-63
2022/04/14 09:54:36;0.00;0.00;0.62;0.00;0.00;0.62;1.90;1.50;;;26.70;26.40;;;;;;2256204;61;20753;-63
2022/04/14 09:57:21;0.00;0.00;0.62;0.00;0.00;0.62;4.20;2.00;;;26.70;26.30;;;;;;2258125;61;20936;-64
2022/04/14 10:00:09;0.00;0.00;0.62;0.00;0.00;0.62;2.30;1.80;;;26.70;26.30;;;;;;2255641;61;20389;-63
2022/04/14 10:03:09;0.00;0.00;0.62;0.00;0.00;0.62;2.27;1.60;;;26.80;26.30;;;;;;2256166;61;20370;-64
2022/04/14 10:05:55;0.00;0.00;0.62;0.00;0.00;0.62;1.70;1.47;;;26.80;26.30;;;;;;2256414;61;20955;-62
2022/04/14 10:08:48;0.00;0.00;0.62;0.00;0.00;0.62;3.30;1.67;;;26.80;26.20;;;;;;2255924;61;20362;-62
2022/04/14 10:11:37;0.00;0.00;0.62;0.00;0.00;0.62;2.20;1.77;;;26.80;26.20;;;;;;2256041;61;20385;-63
2022/04/14 10:14:24;0.00;0.00;0.62;0.00;0.00;0.62;3.17;1.40;;;26.80;26.20;;;;;;2255958;61;20393;-62
2022/04/14 10:17:11;0.00;0.00;0.62;0.00;0.00;0.62;2.20;1.47;;;26.90;26.20;;;;;;2256324;61;20350;-62
2022/04/14 10:19:56;0.00;0.00;0.62;0.00;0.00;0.62;2.50;1.43;;;26.90;26.20;;;;;;2255875;61;20581;-62
2022/04/14 10:22:42;0.00;0.00;0.62;0.00;0.00;0.62;1.90;1.30;;;26.90;26.10;;;;;;2256682;61;20823;-62
2022/04/14 10:25:27;0.00;0.00;0.62;0.00;0.00;0.62;2.57;1.50;;;26.90;26.10;;;;;;2256619;61;20500;-62
2022/04/14 10:28:15;0.00;0.00;0.62;0.00;0.00;0.62;2.43;1.50;;;26.90;26.10;;;;;;2255723;61;20489;-63
2022/04/14 10:31:01;0.00;0.00;0.62;0.00;0.00;0.62;2.03;1.23;;;27.00;26.10;;;;;;2256155;61;20378;-62
2022/04/14 10:33:48;0.00;0.00;0.62;0.00;0.00;0.62;3.03;1.67;;;27.00;26.10;;;;;;2255998;61;20373;-62
2022/04/14 10:36:37;0.00;0.00;0.62;0.00;0.00;0.62;2.23;1.60;;;27.00;26.00;;;;;;2256625;61;20501;-63
2022/04/14 10:39:24;0.00;0.00;0.62;0.00;0.00;0.62;2.40;1.80;;;27.00;26.00;;;;;;2256433;61;20474;-62
2022/04/14 10:42:11;0.00;0.00;0.62;0.00;0.00;0.62;2.07;1.67;;;27.00;26.00;;;;;;2256449;61;20949;-64
2022/04/14 10:44:56;0.00;0.00;0.62;0.00;0.00;0.62;1.77;1.17;;;27.10;26.00;;;;;;2257210;61;20428;-64
2022/04/14 10:47:59;0.00;0.00;0.62;0.00;0.00;0.62;2.33;1.30;;;27.10;26.00;;;;;;2257298;61;20389;-64
2022/04/14 10:50:45;0.00;0.00;0.62;0.00;0.00;0.62;2.33;1.47;;;27.10;26.00;;;;;;2256761;61;20385;-62
2022/04/14 10:53:29;0.00;0.00;0.62;0.00;0.00;0.62;1.77;1.20;;;27.10;25.90;;;;;;2256961;61;20392;-64